EGLL Airport Information

Runway Information
Runway 09L Length 12799 ft width 164 ft
Elevation 79 ft Threshold 1007 ft Heading 90
Runway 27R Length 12799 ft Width 164 ft
Elevation 78 ft Threshold 0 ft Heading 270
Runway 09R Length 12001 ft width 148 ft
Elevation 75 ft Threshold 1013 ft Heading 90
Runway 27L Length 12001 ft Width 148 ft
Elevation 77 ft Threshold 0 ft Heading 270
Airport Frequencies
Type APP Name APP Frequency 119.725 MHZ
Type ATIS Name ATIS Frequency 128.075 MHZ
Type CLD Name CLNC DEL Frequency 121.975 MHZ
Type GND Name GND Frequency 121.7 MHZ
Type TWR Name TWR Frequency 118.475 MHZ
Airport Navaids
Type VOR-DME Name London Frequency 113600 KHZ
Airport Weather Information & NOTAM
ADDS - METARS form results

(1934 UTC 23 May 2019)
Data provider http://aviationweather.gov/metar/data/
 
METAR text: EGLL 231920Z AUTO 22008KT 9999 NCD 20/02 Q1015
Conditions at: EGLL (LONDON/HEATHROW , GB) observed 1920 UTC 23 May 2019
Temperature: 20.0°C (68°F)
Dewpoint: 2.0°C (36°F) [RH = 30%]
Pressure (altimeter): 29.97 inches Hg (1015.0 mb)
Winds: from the SW (220 degrees) at 9 MPH (8 knots; 4.1 m/s)
Visibility: 6 or more miles (10+ km)
Ceiling: at least 12,000 feet AGL
Clouds: sky clear below 12,000 feet AGL
Weather: no significant weather observed at this time

METAR text: EGLL 231850Z AUTO 22010KT 9999 NCD 20/02 Q1014
Conditions at: EGLL (LONDON/HEATHROW , GB) observed 1850 UTC 23 May 2019
Temperature: 20.0°C (68°F)
Dewpoint: 2.0°C (36°F) [RH = 30%]
Pressure (altimeter): 29.94 inches Hg (1014.0 mb)
Winds: from the SW (220 degrees) at 12 MPH (10 knots; 5.1 m/s)
Visibility: 6 or more miles (10+ km)
Ceiling: at least 12,000 feet AGL
Clouds: sky clear below 12,000 feet AGL
Weather: no significant weather observed at this time

Forecast for: EGLL (LONDON/HEATHROW , GB)
Text: TAF EGLL 231703Z 2318/2424 22010KT CAVOK
Forecast period: 1800 UTC 23 May 2019 to 0300 UTC 24 May 2019
Forecast type: FROM: standard forecast or significant change
Winds: from the SW (220 degrees) at 12 MPH (10 knots; 5.1 m/s)
Visibility: 6 or more miles 10+ km)
Ceiling: unknown
Clouds: missing
Weather: NSW  (no significant weather)
Text: BECMG 2403/2406 30008KT
Forecast period: 0300 UTC 24 May 2019 to 0000 UTC 25 May 2019
Forecast type: BECOMING: Conditions expected to become as follows by 0600 UTC 24 May 2019
Winds: from the WNW (300 degrees) at 9 MPH (8 knots; 4.1 m/s)
Visibility: 6 or more miles 10+ km)
Ceiling: unknown
Clouds: missing
Weather: NSW  (no significant weather)
Text: PROB30
Forecast period: 1500 to 2200 UTC 24 May 2019
Forecast type: TEMPORARY: The following changes expected for less than half the time period
Visibility: 5 miles (8 km)
Ceiling: unknown
Clouds: missing
Weather: -SHRA  (light rain showers)